Time;durP1;ratioP1;P1;durP2;ratioP2;P2;SDS_P1;SDS_P2;PMS_P1;PMS_P2;Temp;Humidity;BMP_temperature;BMP_pressure;BME280_temperature;BME280_humidity;BME280_pressure;Samples;Min_cycle;Max_cycle;Signal;HPM_P1;HPM_P2
2023/01/14 00:00:28;;;;;;;3.45;2.05;;;;;;;0.95;100.00;100187.47;10447694;28;20049;-76
2023/01/14 00:05:30;;;;;;;1.90;1.70;;;;;;;0.95;100.00;100187.47;10448960;28;20048;-78
2023/01/14 00:10:32;;;;;;;2.30;1.63;;;;;;;1.01;100.00;100183.84;10447029;28;20057;-83
2023/01/14 00:15:34;;;;;;;2.08;1.60;;;;;;;1.06;100.00;100194.81;10434158;28;20424;-79
2023/01/14 00:20:37;;;;;;;2.05;1.60;;;;;;;1.06;100.00;100179.41;10447509;28;20064;-77
2023/01/14 00:25:39;;;;;;;3.40;1.50;;;;;;;1.09;100.00;100172.72;10451076;28;20057;-78
2023/01/14 00:30:42;;;;;;;2.95;1.95;;;;;;;1.11;100.00;100184.13;10445278;28;20417;-78
2023/01/14 00:35:51;;;;;;;2.60;1.85;;;;;;;1.13;100.00;100193.63;10416619;28;20045;-78
2023/01/14 00:41:08;;;;;;;5.10;1.98;;;;;;;1.14;100.00;100200.69;10449121;28;20057;-77
2023/01/14 00:46:14;;;;;;;3.85;2.28;;;;;;;1.15;100.00;100186.13;10449323;28;20560;-78
2023/01/14 00:51:17;;;;;;;4.10;2.08;;;;;;;1.11;100.00;100184.94;10430230;28;20053;-78
2023/01/14 00:56:21;;;;;;;3.15;2.28;;;;;;;1.10;100.00;100187.88;10441557;28;20045;-78
2023/01/14 01:01:23;;;;;;;3.80;1.92;;;;;;;1.04;100.00;100192.34;10430457;28;20076;-77
2023/01/14 01:06:26;;;;;;;2.08;1.88;;;;;;;1.04;100.00;100195.03;10445269;28;20037;-78
2023/01/14 01:11:28;;;;;;;3.05;2.05;;;;;;;1.01;100.00;100190.06;10444596;28;20037;-77
2023/01/14 01:16:30;;;;;;;4.07;2.08;;;;;;;1.01;100.00;100183.84;10429636;28;20037;-77
2023/01/14 01:21:33;;;;;;;2.33;1.80;;;;;;;1.01;100.00;100181.13;10430117;28;20037;-77
2023/01/14 01:26:35;;;;;;;2.63;2.00;;;;;;;1.00;100.00;100165.97;10446376;28;20045;-77
2023/01/14 01:31:38;;;;;;;3.45;2.17;;;;;;;1.02;100.00;100174.69;10429615;28;20060;-77
2023/01/14 01:36:42;;;;;;;3.70;2.00;;;;;;;1.02;100.00;100185.47;10461889;28;20045;-77
2023/01/14 01:41:44;;;;;;;3.15;2.40;;;;;;;1.00;100.00;100209.22;10448001;28;20049;-77
2023/01/14 01:46:46;;;;;;;2.88;1.95;;;;;;;0.98;100.00;100211.31;10426287;28;20439;-77
2023/01/14 01:52:06;;;;;;;3.40;2.17;;;;;;;0.95;100.00;100198.28;10421538;28;20052;-78
2023/01/14 01:57:09;;;;;;;3.38;2.42;;;;;;;0.93;100.00;100212.00;10428256;28;20037;-78
2023/01/14 02:02:12;;;;;;;3.72;2.60;;;;;;;0.89;100.00;100213.53;10395938;28;20049;-77
2023/01/14 02:07:24;;;;;;;4.43;2.78;;;;;;;0.88;100.00;100223.50;10429118;28;20056;-78
2023/01/14 02:12:54;;;;;;;2.85;2.08;;;;;;;0.91;100.00;100211.41;10445447;28;20044;-78
2023/01/14 02:18:33;;;;;;;5.15;2.25;;;;;;;0.93;100.00;100200.38;10444649;28;20041;-78
2023/01/14 02:24:12;;;;;;;3.88;2.35;;;;;;;0.93;100.00;100206.59;10445982;28;20038;-78
2023/01/14 02:29:29;;;;;;;2.60;2.20;;;;;;;0.93;100.00;100200.38;10370319;28;20511;-78
2023/01/14 02:34:36;;;;;;;3.88;2.30;;;;;;;0.92;100.00;100193.34;10426396;28;20041;-78
2023/01/14 02:39:42;;;;;;;3.47;2.47;;;;;;;0.87;100.00;100211.06;10425718;28;20048;-76
2023/01/14 02:44:52;;;;;;;4.35;2.63;;;;;;;0.86;100.00;100212.06;10460489;28;20056;-78
2023/01/14 02:49:57;;;;;;;4.78;2.70;;;;;;;0.88;100.00;100218.09;10426626;28;20041;-77
2023/01/14 02:55:02;;;;;;;5.10;2.53;;;;;;;0.91;100.00;100216.81;10454374;28;20030;-77
2023/01/14 03:00:14;;;;;;;4.15;2.70;;;;;;;0.91;100.00;100208.72;10420932;28;20045;-77
2023/01/14 03:05:44;;;;;;;5.38;2.90;;;;;;;0.87;100.00;100216.47;10444313;28;20037;-78
2023/01/14 03:11:09;;;;;;;4.00;2.38;;;;;;;0.90;100.00;100220.56;10443781;28;20416;-78
2023/01/14 03:16:14;;;;;;;5.25;2.53;;;;;;;0.88;100.00;100218.09;10443227;28;20408;-77
2023/01/14 03:21:34;;;;;;;4.57;2.60;;;;;;;0.89;100.00;100218.94;10426347;28;20046;-78
2023/01/14 03:26:38;;;;;;;5.00;2.42;;;;;;;0.88;100.00;100209.19;10444313;28;20033;-78
2023/01/14 03:31:44;;;;;;;6.60;3.63;;;;;;;0.87;100.00;100211.06;10410170;28;20052;-76
2023/01/14 03:36:49;;;;;;;6.43;2.65;;;;;;;0.84;100.00;100200.69;10425655;28;20029;-78
2023/01/14 03:47:16;;;;;;;6.85;3.08;;;;;;;0.85;100.00;100223.13;10445298;28;20496;-77
2023/01/14 03:52:32;;;;;;;6.85;3.10;;;;;;;0.83;100.00;100220.63;10443149;28;20049;-78
2023/01/14 03:57:46;;;;;;;4.30;2.88;;;;;;;0.82;100.00;100215.47;10422007;28;20057;-78
2023/01/14 04:02:49;;;;;;;5.30;3.00;;;;;;;0.82;100.00;100213.59;10403020;28;20042;-78
2023/01/14 04:07:52;;;;;;;6.75;3.45;;;;;;;0.79;100.00;100214.06;10441314;28;20039;-79
2023/01/14 04:18:14;;;;;;;6.72;3.55;;;;;;;0.75;100.00;100207.47;10446703;28;20065;-77
2023/01/14 04:23:17;;;;;;;5.28;3.00;;;;;;;0.71;100.00;100203.59;10449712;28;20413;-77
2023/01/14 04:28:19;;;;;;;5.25;3.15;;;;;;;0.70;100.00;100193.84;10449942;28;20061;-78
2023/01/14 04:33:22;;;;;;;6.20;3.42;;;;;;;0.70;100.00;100201.09;10449723;28;20495;-78
2023/01/14 04:38:24;;;;;;;5.63;2.97;;;;;;;0.66;100.00;100205.28;10448815;28;20519;-77
2023/01/14 04:43:27;;;;;;;4.78;2.50;;;;;;;0.64;100.00;100196.59;10448754;28;20056;-77
2023/01/14 04:48:29;;;;;;;4.15;2.72;;;;;;;0.62;100.00;100202.22;10448391;28;20045;-76
2023/01/14 04:53:31;;;;;;;4.93;3.00;;;;;;;0.61;100.00;100189.78;10446506;28;20044;-77
2023/01/14 04:58:33;;;;;;;5.63;3.70;;;;;;;0.62;100.00;100194.13;10447110;28;20416;-78
2023/01/14 05:03:36;;;;;;;6.13;3.10;;;;;;;0.63;100.00;100192.25;10448138;28;20045;-77
2023/01/14 05:08:39;;;;;;;5.65;3.35;;;;;;;0.63;100.00;100198.47;10447783;28;20045;-77
2023/01/14 05:13:41;;;;;;;4.60;2.78;;;;;;;0.58;100.00;100201.03;10471952;28;20048;-78
2023/01/14 05:18:44;;;;;;;4.10;2.50;;;;;;;0.60;100.00;100191.66;10449744;28;20041;-76
2023/01/14 05:23:46;;;;;;;3.70;2.35;;;;;;;0.61;100.00;100192.47;10446233;28;20518;-78
2023/01/14 05:28:48;;;;;;;4.25;2.65;;;;;;;0.62;100.00;100196.00;10436797;28;20041;-77
2023/01/14 05:33:57;;;;;;;3.17;2.25;;;;;;;0.61;100.00;100192.47;10449724;28;20041;-78
2023/01/14 05:38:59;;;;;;;4.10;2.40;;;;;;;0.59;100.00;100186.50;10429384;28;20045;-78
2023/01/14 05:49:22;;;;;;;3.85;1.90;;;;;;;0.58;100.00;100191.06;10447527;28;20057;-78
2023/01/14 05:54:24;;;;;;;3.25;1.85;;;;;;;0.57;100.00;100189.41;10429014;28;20048;-77
2023/01/14 05:59:29;;;;;;;2.22;2.00;;;;;;;0.56;100.00;100181.53;10443470;28;20033;-78
2023/01/14 06:09:52;;;;;;;2.95;1.90;;;;;;;0.55;100.00;100188.00;10444965;28;20053;-78
2023/01/14 06:14:54;;;;;;;2.90;1.85;;;;;;;0.54;100.00;100178.25;10445429;28;20397;-78
2023/01/14 06:19:57;;;;;;;2.97;1.58;;;;;;;0.56;100.00;100185.06;10446234;28;20040;-77
2023/01/14 06:24:59;;;;;;;2.40;1.55;;;;;;;0.57;100.00;100175.91;10444702;28;20500;-77
2023/01/14 06:30:01;;;;;;;2.13;1.27;;;;;;;0.58;100.00;100185.66;10439591;28;20040;-78
2023/01/14 06:35:03;;;;;;;3.00;1.67;;;;;;;0.61;100.00;100181.69;10448674;28;20545;-77
2023/01/14 06:40:06;;;;;;;2.08;1.55;;;;;;;0.61;100.00;100187.06;10445694;28;20435;-78
2023/01/14 06:45:10;;;;;;;2.55;2.05;;;;;;;0.63;100.00;100187.66;10444830;28;20038;-78
2023/01/14 06:50:14;;;;;;;2.45;1.80;;;;;;;0.63;100.00;100193.06;10444046;28;20045;-80
2023/01/14 06:55:16;;;;;;;1.52;1.42;;;;;;;0.64;100.00;100196.59;10459135;28;20064;-77
2023/01/14 07:00:18;;;;;;;2.88;1.85;;;;;;;0.65;100.00;100200.94;10426679;28;20038;-77
2023/01/14 07:05:21;;;;;;;3.05;1.67;;;;;;;0.65;100.00;100203.66;10407177;28;20423;-76
2023/01/14 07:10:23;;;;;;;2.00;1.58;;;;;;;0.62;100.00;100201.41;10417057;28;20056;-75
2023/01/14 07:15:25;;;;;;;2.42;0.95;;;;;;;0.62;100.00;100201.41;10441447;28;20046;-75
2023/01/14 07:20:27;;;;;;;3.45;2.10;;;;;;;0.63;100.00;100209.28;10405483;28;20539;-74
2023/01/14 07:25:29;;;;;;;3.25;2.13;;;;;;;0.63;100.00;100206.56;10441037;28;20040;-75
2023/01/14 07:30:31;;;;;;;4.88;2.15;;;;;;;0.64;100.00;100202.81;10425790;28;20045;-75
2023/01/14 07:35:33;;;;;;;2.53;1.83;;;;;;;0.59;100.00;100218.88;10432789;28;20042;-76
2023/01/14 07:40:37;;;;;;;3.17;1.75;;;;;;;0.57;100.00;100216.41;10428233;28;20049;-75
2023/01/14 07:45:40;;;;;;;4.72;1.80;;;;;;;0.53;100.00;100220.63;10412160;28;20041;-75
2023/01/14 07:50:42;;;;;;;1.65;1.10;;;;;;;0.55;100.00;100217.69;10414428;28;20531;-75
2023/01/14 07:55:44;;;;;;;3.33;1.90;;;;;;;0.53;100.00;100227.91;10445280;28;20033;-75
2023/01/14 08:00:47;;;;;;;2.17;1.73;;;;;;;0.55;100.00;100225.78;10379193;28;20129;-75
2023/01/14 08:05:49;;;;;;;3.55;1.80;;;;;;;0.53;100.00;100227.91;10400491;28;20045;-77
2023/01/14 08:10:51;;;;;;;3.47;2.15;;;;;;;0.51;100.00;100227.28;10385395;28;20079;-75
2023/01/14 08:15:58;;;;;;;3.72;1.90;;;;;;;0.59;100.00;100224.28;10394738;28;20045;-75
2023/01/14 08:21:02;;;;;;;2.35;1.38;;;;;;;0.60;100.00;100221.34;10412271;28;20415;-76
2023/01/14 08:26:07;;;;;;;1.10;1.05;;;;;;;0.62;100.00;100221.13;10428123;28;20033;-75
2023/01/14 08:31:15;;;;;;;1.90;1.50;;;;;;;0.63;100.00;100217.38;10382487;28;20042;-77
2023/01/14 08:36:18;;;;;;;1.77;1.25;;;;;;;0.66;100.00;100208.81;10400815;28;20042;-74
2023/01/14 08:41:21;;;;;;;5.43;1.80;;;;;;;0.66;100.00;100222.31;10400180;28;20057;-75
2023/01/14 08:46:29;;;;;;;2.88;1.42;;;;;;;0.68;100.00;100219.38;10378005;28;20042;-78
2023/01/14 08:51:34;;;;;;;1.55;1.45;;;;;;;0.71;100.00;100217.09;10391417;28;20075;-77
2023/01/14 08:56:39;;;;;;;1.90;1.75;;;;;;;0.68;100.00;100220.22;10386542;28;20129;-75
2023/01/14 09:01:41;;;;;;;2.50;1.20;;;;;;;0.67;100.00;100210.47;10404359;28;20444;-75
2023/01/14 09:17:27;;;;;;;1.75;0.90;;;;;;;0.63;100.00;100206.56;10385169;28;20037;-74
2023/01/14 09:22:30;;;;;;;1.85;1.50;;;;;;;0.59;100.00;100203.50;10401923;28;20041;-76
2023/01/14 09:27:32;;;;;;;2.42;1.23;;;;;;;0.57;100.00;100199.38;10398003;28;20041;-74
2023/01/14 09:32:38;;;;;;;2.15;1.77;;;;;;;0.57;100.00;100211.00;10400971;28;20057;-75
2023/01/14 09:37:41;;;;;;;2.05;1.45;;;;;;;0.58;100.00;100209.97;10403352;28;20548;-75
2023/01/14 09:42:47;;;;;;;2.13;1.20;;;;;;;0.60;100.00;100212.44;10412375;28;20057;-75
2023/01/14 09:47:50;;;;;;;2.53;1.40;;;;;;;0.61;100.00;100211.38;10419441;28;20045;-76
2023/01/14 09:53:15;;;;;;;3.03;1.38;;;;;;;0.65;100.00;100201.75;10412234;28;20091;-75
2023/01/14 09:58:20;;;;;;;1.80;1.20;;;;;;;0.64;100.00;100205.53;10435426;28;20932;-77
2023/01/14 10:03:31;;;;;;;2.00;1.30;;;;;;;0.64;100.00;100202.81;10443281;28;20041;-77
2023/01/14 10:08:39;;;;;;;3.47;1.70;;;;;;;0.65;100.00;100201.75;10454323;28;20412;-75
2023/01/14 10:14:00;;;;;;;2.30;1.58;;;;;;;0.64;100.00;100199.28;10439940;28;20056;-75
2023/01/14 10:19:31;;;;;;;2.20;1.50;;;;;;;0.64;100.00;100205.53;10439963;28;20045;-75
2023/01/14 10:24:33;;;;;;;1.75;0.88;;;;;;;0.63;100.00;100213.84;10439079;28;20041;-74
2023/01/14 10:29:35;;;;;;;1.60;1.38;;;;;;;0.63;100.00;100193.06;10443298;28;20049;-75
2023/01/14 10:34:42;;;;;;;1.35;1.17;;;;;;;0.66;100.00;100184.50;10444444;28;20041;-74
2023/01/14 10:39:50;;;;;;;1.55;1.30;;;;;;;0.66;100.00;100181.81;10403623;28;20068;-75
2023/01/14 10:44:53;;;;;;;2.60;1.50;;;;;;;0.69;100.00;100191.31;10423713;28;20044;-75
2023/01/14 10:49:59;;;;;;;1.20;0.98;;;;;;;0.71;100.00;100173.88;10440603;28;20086;-77
2023/01/14 10:55:11;;;;;;;4.68;2.10;;;;;;;0.74;100.00;100202.28;10457932;28;20037;-76
2023/01/14 11:00:35;;;;;;;1.63;1.50;;;;;;;0.75;100.00;100196.66;10444130;28;20056;-76
2023/01/14 11:05:40;;;;;;;1.70;1.25;;;;;;;0.78;100.00;100198.91;10442910;28;20057;-77
2023/01/14 11:10:42;;;;;;;2.42;1.75;;;;;;;0.79;100.00;100203.25;10435215;28;20040;-77
2023/01/14 11:15:45;;;;;;;2.25;1.23;;;;;;;0.78;100.00;100196.19;10424994;28;20045;-77
2023/01/14 11:21:11;;;;;;;3.35;1.90;;;;;;;0.80;100.00;100194.09;10439440;28;20432;-77
2023/01/14 11:26:28;;;;;;;1.30;1.20;;;;;;;0.81;100.00;100200.31;10427115;28;20037;-76
2023/01/14 11:31:33;;;;;;;1.23;1.13;;;;;;;0.79;100.00;100194.31;10441628;28;20049;-76
2023/01/14 11:36:36;;;;;;;3.17;2.08;;;;;;;0.83;100.00;100188.22;10429640;28;20042;-75
2023/01/14 11:41:39;;;;;;;1.45;1.35;;;;;;;0.86;100.00;100159.94;10433923;28;20045;-75
2023/01/14 11:46:44;;;;;;;2.60;1.98;;;;;;;0.87;100.00;100178.66;10431572;28;20041;-77
2023/01/14 11:51:59;;;;;;;2.40;1.90;;;;;;;0.88;100.00;100169.47;10418476;28;20033;-77
2023/01/14 11:57:02;;;;;;;6.38;2.70;;;;;;;0.88;100.00;100153.28;10437326;28;20033;-77
2023/01/14 12:02:44;;;;;;;5.07;1.95;;;;;;;0.94;100.00;100156.09;10437767;28;20045;-76
2023/01/14 12:07:52;;;;;;;5.30;2.50;;;;;;;0.95;100.00;100160.47;10218413;29;20036;-78
2023/01/14 12:18:18;;;;;;;3.17;2.13;;;;;;;0.98;100.00;100162.69;10430309;28;19925;-75
2023/01/14 12:23:22;;;;;;;4.78;2.78;;;;;;;0.95;100.00;100163.97;10450819;28;20048;-77
2023/01/14 12:28:29;;;;;;;6.13;2.88;;;;;;;0.99;100.00;100153.53;10441679;28;20044;-77
2023/01/14 12:33:32;;;;;;;5.97;2.88;;;;;;;1.03;100.00;100170.91;10436367;28;20389;-79
2023/01/14 12:49:24;;;;;;;3.88;1.98;;;;;;;1.02;100.00;100153.06;10422032;28;20045;-79
2023/01/14 12:54:30;;;;;;;5.63;3.22;;;;;;;0.99;100.00;100148.13;10412958;28;20042;-76
2023/01/14 12:59:40;;;;;;;5.32;3.30;;;;;;;0.95;100.00;100153.19;10400201;28;20511;-74
2023/01/14 13:05:03;;;;;;;5.05;2.78;;;;;;;0.97;100.00;100161.03;10417402;28;20045;-75
2023/01/14 13:10:08;;;;;;;4.82;3.38;;;;;;;0.96;100.00;100165.63;10446517;28;20447;-75
2023/01/14 13:15:19;;;;;;;3.78;2.67;;;;;;;0.94;100.00;100154.22;10424685;28;20037;-75
2023/01/14 13:20:32;;;;;;;7.68;3.47;;;;;;;0.89;100.00;100149.53;10439972;28;20052;-78
2023/01/14 13:25:42;;;;;;;5.30;3.30;;;;;;;0.84;100.00;100143.97;10440822;28;20041;-77
2023/01/14 13:31:01;;;;;;;5.88;2.78;;;;;;;0.86;100.00;100147.25;10408959;28;20045;-77
2023/01/14 13:36:10;;;;;;;4.70;2.90;;;;;;;0.89;100.00;100137.91;10431055;28;20044;-81
2023/01/14 13:41:29;;;;;;;5.07;2.72;;;;;;;0.88;100.00;100141.66;10424429;28;20057;-79
2023/01/14 13:46:34;;;;;;;5.38;3.33;;;;;;;0.89;100.00;100132.50;10366051;28;20050;-79
2023/01/14 13:51:39;;;;;;;4.93;2.42;;;;;;;0.88;100.00;100141.66;10379213;28;20503;-80
2023/01/14 13:56:48;;;;;;;3.13;2.53;;;;;;;0.87;100.00;100146.22;10399216;28;20064;-86
2023/01/14 14:01:51;;;;;;;4.50;3.17;;;;;;;0.87;100.00;100157.03;10372300;28;20455;-88
2023/01/14 14:06:55;;;;;;;3.83;1.75;;;;;;;0.86;100.00;100152.66;10381255;28;20042;-85
2023/01/14 14:14:03;;;;;;;6.00;3.63;;;;;;;0.88;100.00;100152.47;10380576;28;20547;-83
2023/01/14 14:17:39;;;;;;;4.80;3.30;;;;;;;0.89;100.00;100154.09;10394534;28;20042;-76
2023/01/14 14:23:02;;;;;;;4.57;3.13;;;;;;;0.89;100.00;100133.31;10391143;28;20053;-76
2023/01/14 14:28:06;;;;;;;4.07;2.60;;;;;;;0.90;100.00;100139.53;10400501;28;20058;-78
2023/01/14 14:33:38;;;;;;;3.13;2.40;;;;;;;0.92;100.00;100147.41;10413473;28;20054;-77
2023/01/14 14:38:50;;;;;;;3.60;2.58;;;;;;;0.90;100.00;100151.16;10365356;28;20037;-78
2023/01/14 14:43:59;;;;;;;4.60;3.25;;;;;;;0.90;100.00;100156.56;10375815;28;20060;-78
2023/01/14 14:49:29;;;;;;;5.68;3.50;;;;;;;0.94;100.00;100156.09;10396608;28;20045;-77
2023/01/14 14:54:33;;;;;;;4.10;3.05;;;;;;;0.93;100.00;100163.38;10347677;28;20054;-79
2023/01/14 14:59:37;;;;;;;4.47;2.95;;;;;;;0.94;100.00;100156.09;10385005;28;20053;-79
2023/01/14 15:04:39;;;;;;;6.97;3.40;;;;;;;0.91;100.00;100135.78;10398572;28;20045;-81
2023/01/14 15:09:44;;;;;;;5.30;3.22;;;;;;;0.89;100.00;100144.13;10373665;28;20054;-80
2023/01/14 15:14:58;;;;;;;5.30;3.50;;;;;;;0.89;100.00;100144.13;10372568;28;20052;-81
2023/01/14 15:20:00;;;;;;;5.88;3.33;;;;;;;0.93;100.00;100154.47;10392088;28;20421;-77
2023/01/14 15:25:04;;;;;;;5.10;3.60;;;;;;;0.90;100.00;100143.06;10400613;28;20053;-76
2023/01/14 15:30:25;;;;;;;5.13;3.58;;;;;;;0.87;100.00;100148.94;10397017;28;20041;-76
2023/01/14 15:35:32;;;;;;;6.47;3.30;;;;;;;0.87;100.00;100151.63;10397458;28;20042;-77
2023/01/14 15:40:39;;;;;;;5.57;3.13;;;;;;;0.85;100.00;100148.31;10409802;28;20053;-78
2023/01/14 15:45:43;;;;;;;3.92;2.47;;;;;;;0.87;100.00;100142.72;10383814;28;20038;-78
2023/01/14 15:50:58;;;;;;;7.00;3.65;;;;;;;0.87;100.00;100135.44;10393429;28;20034;-78
2023/01/14 15:56:05;;;;;;;5.55;3.58;;;;;;;0.88;100.00;100147.06;10407278;28;20042;-78
2023/01/14 16:01:18;;;;;;;6.28;3.97;;;;;;;0.83;100.00;100128.81;10378410;28;20045;-78
2023/01/14 16:06:49;;;;;;;7.13;3.92;;;;;;;0.81;100.00;100114.72;10370751;28;20100;-75
2023/01/14 16:11:53;;;;;;;6.65;4.00;;;;;;;0.82;100.00;100119.06;10399802;28;20049;-77
2023/01/14 16:16:55;;;;;;;5.13;3.83;;;;;;;0.83;100.00;100104.50;10380146;28;20052;-75
2023/01/14 16:21:58;;;;;;;6.10;3.90;;;;;;;0.83;100.00;100111.78;10403745;28;20786;-79
2023/01/14 16:27:01;;;;;;;6.43;4.13;;;;;;;0.84;100.00;100108.84;10408077;28;20444;-83
2023/01/14 16:32:07;;;;;;;5.80;3.67;;;;;;;0.85;100.00;100105.09;10392829;28;20409;-81
2023/01/14 16:37:11;;;;;;;6.67;3.43;;;;;;;0.89;100.00;100095.50;10388506;28;20048;-78
2023/01/14 16:42:13;;;;;;;5.05;3.08;;;;;;;0.87;100.00;100086.81;10405889;28;20492;-77
2023/01/14 16:47:16;;;;;;;5.88;3.78;;;;;;;0.90;100.00;100094.44;10406351;28;20515;-79
2023/01/14 16:52:18;;;;;;;6.43;3.80;;;;;;;0.92;100.00;100096.09;10410162;28;20042;-78
2023/01/14 16:57:20;;;;;;;2.78;1.77;;;;;;;0.97;100.00;100090.81;10404711;28;20060;-80
2023/01/14 17:02:22;;;;;;;6.00;3.45;;;;;;;1.02;100.00;100097.16;10396697;28;20458;-80
2023/01/14 17:07:24;;;;;;;6.25;3.58;;;;;;;1.04;100.00;100097.78;10420179;28;20042;-77
2023/01/14 17:12:39;;;;;;;4.85;3.40;;;;;;;1.05;100.00;100085.09;10376143;28;20057;-80
2023/01/14 17:17:41;;;;;;;7.07;3.55;;;;;;;1.06;100.00;100095.66;10385789;28;20509;-86
2023/01/14 17:22:45;;;;;;;5.10;4.00;;;;;;;1.08;100.00;100092.72;10385361;28;20841;-82
2023/01/14 17:27:50;;;;;;;5.68;3.55;;;;;;;1.05;100.00;100077.81;10404779;28;20045;-79
2023/01/14 17:32:53;;;;;;;5.68;3.70;;;;;;;1.09;100.00;100091.66;10411339;28;20061;-83
2023/01/14 17:37:58;;;;;;;3.97;2.58;;;;;;;1.12;100.00;100077.69;10419565;28;20480;-81
2023/01/14 17:43:00;;;;;;;6.90;3.92;;;;;;;1.13;100.00;100100.94;10403943;28;20053;-81
2023/01/14 17:48:03;;;;;;;6.18;3.65;;;;;;;1.15;100.00;100088.84;10404513;28;20100;-81
2023/01/14 17:53:05;;;;;;;4.95;4.03;;;;;;;1.20;100.00;100080.03;10392521;28;20069;-79
2023/01/14 17:58:07;;;;;;;5.53;3.67;;;;;;;1.24;100.00;100092.03;10396078;28;20524;-80
2023/01/14 18:03:09;;;;;;;6.75;3.55;;;;;;;1.27;100.00;100106.97;10404969;28;20042;-79
2023/01/14 18:08:11;;;;;;;4.18;3.05;;;;;;;1.25;100.00;100093.69;10402617;28;20069;-80
2023/01/14 18:13:14;;;;;;;5.20;3.75;;;;;;;1.28;100.00;100089.69;10402928;28;20042;-79
2023/01/14 18:18:16;;;;;;;8.60;4.15;;;;;;;1.30;100.00;100096.50;10401456;28;20060;-79
2023/01/14 18:23:18;;;;;;;6.55;3.70;;;;;;;1.32;100.00;100094.38;10404565;28;20054;-79
2023/01/14 18:28:20;;;;;;;7.53;3.95;;;;;;;1.32;100.00;100093.56;10383898;28;20497;-89
2023/01/14 18:33:22;;;;;;;6.00;3.88;;;;;;;1.35;100.00;100087.69;10388823;28;20051;-81
2023/01/14 18:38:24;;;;;;;4.85;3.50;;;;;;;1.37;100.00;100085.56;10387138;28;20049;-83
2023/01/14 18:43:27;;;;;;;4.60;3.42;;;;;;;1.38;100.00;100079.09;10416193;28;20053;-79
2023/01/14 18:48:29;;;;;;;6.68;3.60;;;;;;;1.38;100.00;100081.81;10423908;28;20555;-82
2023/01/14 18:53:31;;;;;;;4.97;3.70;;;;;;;1.41;100.00;100079.47;10441684;28;20064;-78
2023/01/14 18:58:36;;;;;;;5.40;3.80;;;;;;;1.42;100.00;100080.31;10423828;28;20049;-78
2023/01/14 19:03:38;;;;;;;6.03;4.15;;;;;;;1.46;100.00;100066.06;10442368;28;20428;-78
2023/01/14 19:08:42;;;;;;;7.68;4.85;;;;;;;1.49;100.00;100068.28;10463858;28;20053;-78
2023/01/14 19:13:44;;;;;;;3.33;1.65;;;;;;;1.52;100.00;100062.41;10440304;28;20167;-78
2023/01/14 19:18:47;;;;;;;6.72;3.90;;;;;;;1.54;100.00;100069.47;10430325;28;20040;-79
2023/01/14 19:23:51;;;;;;;6.88;4.35;;;;;;;1.58;100.00;100057.97;10404387;28;20065;-77
2023/01/14 19:28:54;;;;;;;5.93;3.83;;;;;;;1.60;100.00;100053.13;10424670;28;20508;-78
2023/01/14 19:33:56;;;;;;;7.80;4.28;;;;;;;1.64;100.00;100050.78;10372968;28;20129;-78
2023/01/14 19:38:59;;;;;;;6.47;4.22;;;;;;;1.67;100.00;100061.94;10446288;28;20052;-78
2023/01/14 19:44:01;;;;;;;6.78;4.05;;;;;;;1.67;100.00;100050.28;10448412;28;20057;-79
2023/01/14 19:49:04;;;;;;;4.97;3.60;;;;;;;1.67;100.00;100048.41;10452237;28;20042;-77
2023/01/14 19:54:10;;;;;;;6.22;3.80;;;;;;;1.66;100.00;100067.59;10451338;28;20034;-77
2023/01/14 19:59:16;;;;;;;6.85;3.58;;;;;;;1.67;100.00;100064.63;10456519;28;20648;-78
2023/01/14 20:04:18;;;;;;;7.13;4.47;;;;;;;1.68;100.00;100066.28;10451117;28;20045;-78
2023/01/14 20:09:20;;;;;;;8.05;4.47;;;;;;;1.70;100.00;100077.69;10451248;28;20064;-79
2023/01/14 20:14:25;;;;;;;5.50;3.83;;;;;;;1.71;100.00;100078.50;10473239;28;20060;-79
2023/01/14 20:19:27;;;;;;;8.07;3.58;;;;;;;1.75;100.00;100080.53;10460175;28;20049;-78
2023/01/14 20:24:29;;;;;;;6.68;4.03;;;;;;;1.77;100.00;100081.09;10450513;28;20415;-79
2023/01/14 20:29:32;;;;;;;5.97;3.72;;;;;;;1.80;100.00;100090.63;10451052;28;20500;-82
2023/01/14 20:34:34;;;;;;;7.47;4.00;;;;;;;1.81;100.00;100081.44;10433760;28;20048;-80
2023/01/14 20:39:36;;;;;;;7.32;4.00;;;;;;;1.86;100.00;100091.53;10416670;28;20053;-80
2023/01/14 20:45:01;;;;;;;8.48;4.40;;;;;;;1.85;100.00;100082.59;10449210;28;20041;-80
2023/01/14 20:50:01;;;;;;;5.88;3.92;;;;;;;1.90;100.00;100090.81;10450110;28;20084;-81
2023/01/14 20:55:03;;;;;;;6.90;3.88;;;;;;;1.94;100.00;100089.31;10444839;28;20038;-79
2023/01/14 21:00:06;;;;;;;6.97;3.78;;;;;;;2.01;100.00;100090.00;10446602;28;20056;-78
2023/01/14 21:05:09;;;;;;;4.28;3.05;;;;;;;2.14;100.00;100112.44;10426153;28;20046;-78
2023/01/14 21:10:11;;;;;;;4.82;3.20;;;;;;;2.19;99.37;100115.25;10460191;28;20192;-79
2023/01/14 21:25:55;;;;;;;4.18;2.72;;;;;;;2.25;99.40;100117.81;10448868;28;20366;-81
2023/01/14 21:30:58;;;;;;;4.60;2.63;;;;;;;2.26;99.35;100122.19;10444422;28;20045;-80
2023/01/14 21:36:00;;;;;;;6.95;2.85;;;;;;;2.27;99.25;100131.13;10444468;28;20057;-81
2023/01/14 21:46:27;;;;;;;4.32;2.15;;;;;;;2.28;98.08;100141.72;10443988;28;20060;-78
2023/01/14 21:51:29;;;;;;;4.13;2.85;;;;;;;2.31;97.92;100135.00;10442303;28;20447;-78
2023/01/14 21:56:32;;;;;;;3.25;2.45;;;;;;;2.32;97.84;100142.06;10434803;28;20046;-78
2023/01/14 22:01:35;;;;;;;4.90;2.28;;;;;;;2.36;98.07;100154.06;10415132;28;20045;-77
2023/01/14 22:06:37;;;;;;;6.50;2.45;;;;;;;2.38;96.82;100154.63;10438995;28;20045;-78
2023/01/14 22:11:40;;;;;;;4.03;2.58;;;;;;;2.37;96.64;100150.28;10405128;28;20041;-77
2023/01/14 22:16:42;;;;;;;5.80;2.50;;;;;;;2.37;96.51;100147.56;10436893;28;20054;-79
2023/01/14 22:21:44;;;;;;;3.80;2.03;;;;;;;2.34;96.46;100165.13;10429395;28;20048;-79
2023/01/14 22:26:46;;;;;;;2.67;1.60;;;;;;;2.33;96.29;100159.94;10411415;28;20574;-79
2023/01/14 22:31:48;;;;;;;2.78;1.60;;;;;;;2.34;96.09;100183.25;10428148;28;20037;-78
2023/01/14 22:36:53;;;;;;;2.35;1.45;;;;;;;2.33;95.92;100181.63;10410749;28;20038;-78
2023/01/14 22:41:56;;;;;;;3.38;1.48;;;;;;;2.34;95.74;100180.53;10409241;28;20049;-75
2023/01/14 22:46:58;;;;;;;2.50;2.17;;;;;;;2.37;95.62;100197.13;10407596;28;20037;-75
2023/01/14 22:52:00;;;;;;;2.67;1.58;;;;;;;2.38;95.39;100193.38;10403433;28;20492;-75
2023/01/14 22:57:02;;;;;;;2.13;1.40;;;;;;;2.35;95.11;100191.13;10385791;28;20041;-74
2023/01/14 23:02:05;;;;;;;4.38;1.75;;;;;;;2.36;95.04;100202.78;10410802;28;20048;-75
2023/01/14 23:07:08;;;;;;;4.18;1.48;;;;;;;2.35;95.28;100201.97;10412347;28;20065;-75
2023/01/14 23:12:10;;;;;;;3.40;1.75;;;;;;;2.36;95.67;100202.78;10396102;28;20052;-75
2023/01/14 23:17:27;;;;;;;1.63;1.27;;;;;;;2.37;95.84;100204.44;10396494;28;20045;-74
2023/01/14 23:27:56;;;;;;;4.45;1.42;;;;;;;2.36;96.59;100202.78;10408443;28;20050;-76
2023/01/14 23:33:02;;;;;;;3.90;1.30;;;;;;;2.36;96.72;100200.09;10427653;28;20523;-75
2023/01/14 23:38:04;;;;;;;1.45;1.00;;;;;;;2.38;96.55;100197.97;10418428;28;20512;-79
2023/01/14 23:43:06;;;;;;;1.38;1.13;;;;;;;2.38;96.48;100203.38;10437767;28;20049;-79
2023/01/14 23:48:09;;;;;;;2.33;1.17;;;;;;;2.41;96.13;100219.13;10436228;28;20060;-80
2023/01/14 23:53:12;;;;;;;2.17;1.50;;;;;;;2.38;95.82;100212.31;10437734;28;20045;-77
2023/01/14 23:58:14;;;;;;;3.22;1.33;;;;;;;2.38;96.01;100211.50;10422139;28;20048;-78
